| time (UTC) | temp F | wind direction | speed knots | gust knots | rain 1hr in | rain 24hr in | rain mn in | humidity % | barometer mb |
| 20260510164545 | 73 | 235 | 3.5 | 8.7 | 0.00 | 0.00 | 0.00 | 50 | 1005.5 |
| 20260510164040 | 72 | 100 | 5.2 | 7.8 | 0.00 | 0.00 | 0.00 | 52 | 1005.7 |
| 20260510163530 | 73 | 122 | 4.3 | 8.7 | 0.00 | 0.00 | 0.00 | 53 | 1005.6 |
| 20260510163027 | 72 | 302 | 0.0 | 3.5 | 0.00 | 0.00 | 0.00 | 54 | 1005.6 |
| 20260510162522 | 71 | 129 | 6.1 | 7.8 | 0.00 | 0.00 | 0.00 | 52 | 1005.7 |
| 20260510162019 | 71 | 140 | 4.3 | 6.1 | 0.00 | 0.00 | 0.00 | 55 | 1005.4 |
| 20260510161514 | 71 | 147 | 3.5 | 5.2 | 0.00 | 0.00 | 0.00 | 55 | 1005.7 |
| 20260510161011 | 73 | 161 | 5.2 | 7.0 | 0.00 | 0.00 | 0.00 | 53 | 1005.8 |
| 20260510160503 | 71 | 164 | 1.7 | 2.6 | 0.00 | 0.00 | 0.00 | 52 | 1005.7 |
| 20260510160002 | 71 | 173 | 4.3 | 7.0 | 0.00 | 0.00 | 0.00 | 53 | 1005.7 |
| 20260510155458 | 71 | 160 | 1.7 | 11.3 | 0.00 | 0.00 | 0.00 | 54 | 1005.7 |
| 20260510154954 | 71 | 161 | 7.0 | 12.2 | 0.00 | 0.00 | 0.00 | 52 | 1005.8 |
| 20260510154445 | 72 | 293 | 4.3 | 7.8 | 0.00 | 0.00 | 0.00 | 54 | 1005.6 |
| 20260510153944 | 71 | 152 | 4.3 | 8.7 | 0.00 | 0.00 | 0.00 | 55 | 1005.6 |
| 20260510153440 | 71 | 256 | 4.3 | 7.8 | 0.00 | 0.00 | 0.00 | 57 | 1005.9 |
| 20260510152937 | 70 | 149 | 4.3 | 11.3 | 0.00 | 0.00 | 0.00 | 56 | 1005.8 |
| 20260510152435 | 70 | 152 | 3.5 | 7.0 | 0.00 | 0.00 | 0.00 | 62 | 1005.9 |
| 20260510151931 | 70 | 168 | 4.3 | 8.7 | 0.00 | 0.00 | 0.00 | 61 | 1005.8 |
| 20260510151428 | 69 | 315 | 1.7 | 7.8 | 0.00 | 0.00 | 0.00 | 58 | 1005.8 |
| 20260510150924 | 70 | 280 | 4.3 | 7.0 | 0.00 | 0.00 | 0.00 | 61 | 1005.7 |
| 20260510150420 | 70 | 156 | 2.6 | 6.1 | 0.00 | 0.00 | 0.00 | 60 | 1005.8 |
| 20260510145916 | 69 | 211 | 1.7 | 6.1 | 0.00 | 0.00 | 0.00 | 60 | 1005.9 |
| 20260510145413 | 69 | 208 | 5.2 | 8.7 | 0.00 | 0.00 | 0.00 | 61 | 1005.9 |
| 20260510144910 | 69 | 257 | 5.2 | 7.8 | 0.00 | 0.00 | 0.00 | 59 | 1005.7 |
| 20260510144406 | 69 | 231 | 6.1 | 11.3 | 0.00 | 0.00 | 0.00 | 62 | 1005.7 |
| 20260510143901 | 69 | 245 | 3.5 | 5.2 | 0.00 | 0.00 | 0.00 | 58 | 1005.7 |
| 20260510143357 | 68 | 167 | 1.7 | 7.0 | 0.00 | 0.00 | 0.00 | 62 | 1005.5 |
| 20260510142854 | 68 | 252 | 4.3 | 6.1 | 0.00 | 0.00 | 0.00 | 60 | 1005.8 |
| 20260510142351 | 68 | 261 | 3.5 | 5.2 | 0.00 | 0.00 | 0.00 | 63 | 1005.6 |
| 20260510141848 | 67 | 249 | 3.5 | 7.0 | 0.00 | 0.00 | 0.00 | 64 | 1005.6 |
| 20260510141345 | 67 | 210 | 4.3 | 8.7 | 0.00 | 0.00 | 0.00 | 65 | 1005.7 |
| 20260510140842 | 67 | 105 | 4.3 | 6.1 | 0.00 | 0.00 | 0.00 | 64 | 1005.6 |
| 20260510140337 | 66 | 133 | 3.5 | 7.0 | 0.00 | 0.00 | 0.00 | 66 | 1005.6 |
| 20260510135831 | 67 | 195 | 0.9 | 6.1 | 0.00 | 0.00 | 0.00 | 66 | 1005.6 |
| 20260510135327 | 66 | 136 | 0.9 | 6.1 | 0.00 | 0.00 | 0.00 | 68 | 1005.8 |
| 20260510134825 | 67 | 145 | 3.5 | 6.1 | 0.00 | 0.00 | 0.00 | 67 | 1005.8 |
| 20260510134322 | 65 | 262 | 1.7 | 3.5 | 0.00 | 0.00 | 0.00 | 70 | 1005.7 |
| 20260510133818 | 64 | 223 | 2.6 | 7.0 | 0.00 | 0.00 | 0.00 | 71 | 1005.7 |
| 20260510133314 | 64 | 294 | 3.5 | 5.2 | 0.00 | 0.00 | 0.00 | 72 | 1005.6 |
| 20260510132809 | 64 | 165 | 0.9 | 3.5 | 0.00 | 0.00 | 0.00 | 73 | 1005.7 |
| 20260510132308 | 63 | 322 | 0.9 | 3.5 | 0.00 | 0.00 | 0.00 | 73 | 1005.6 |
| 20260510131805 | 63 | 240 | 2.6 | 6.1 | 0.00 | 0.00 | 0.00 | 74 | 1005.7 |
| 20260510131302 | 63 | 156 | 0.9 | 3.5 | 0.00 | 0.00 | 0.00 | 75 | 1005.7 |
| 20260510130759 | 62 | 214 | 0.0 | 2.6 | 0.00 | 0.00 | 0.00 | 75 | 1005.6 |
| 20260510130255 | 62 | 264 | 2.6 | 5.2 | 0.00 | 0.00 | 0.00 | 77 | 1005.7 |
| 20260510125752 | 61 | 136 | 3.5 | 3.5 | 0.00 | 0.00 | 0.00 | 77 | 1005.6 |
| 20260510125248 | 61 | 173 | 0.0 | 7.0 | 0.00 | 0.00 | 0.00 | 79 | 1005.4 |
| 20260510124745 | 60 | 259 | 0.9 | 3.5 | 0.00 | 0.00 | 0.00 | 78 | 1005.5 |
| 20260510124242 | 60 | 236 | 1.7 | 5.2 | 0.00 | 0.00 | 0.00 | 80 | 1005.4 |
| 20260510123737 | 60 | 217 | 5.2 | 6.1 | 0.00 | 0.00 | 0.00 | 80 | 1005.3 |
| 20260510123233 | 60 | 234 | 0.9 | 3.5 | 0.00 | 0.00 | 0.00 | 80 | 1005.4 |
| 20260510122724 | 59 | 256 | 2.6 | 3.5 | 0.00 | 0.00 | 0.00 | 83 | 1005.2 |
| 20260510122221 | 59 | 260 | 4.3 | 5.2 | 0.00 | 0.00 | 0.00 | 81 | 1005.2 |
| 20260510121717 | 58 | 272 | 1.7 | 2.6 | 0.00 | 0.00 | 0.00 | 83 | 1005.1 |
| 20260510121215 | 58 | 151 | 1.7 | 3.5 | 0.00 | 0.00 | 0.00 | 84 | 1005.2 |
| 20260510120712 | 57 | 278 | 3.5 | 3.5 | 0.00 | 0.00 | 0.00 | 85 | 1005.1 |
| 20260510120208 | 56 | 113 | 0.0 | 1.7 | 0.00 | 0.00 | 0.00 | 90 | 1005.1 |
| 20260510115704 | 55 | 163 | 0.9 | 1.7 | 0.00 | 0.00 | 0.00 | 92 | 1005.1 |
| 20260510115203 | 54 | 256 | 0.0 | 1.7 | 0.00 | 0.00 | 0.00 | 95 | 1005.1 |
| 20260510114657 | 53 | 246 | 0.9 | 0.9 | 0.00 | 0.00 | 0.00 | 97 | 1005.0 |
| 20260510114154 | 52 | 220 | 0.9 | 1.7 | 0.00 | 0.00 | 0.00 | 99 | 1005.1 |
| 20260510113643 | 51 | 192 | 0.0 | 1.7 | 0.00 | 0.00 | 0.00 | 99 | 1005.1 |
| 20260510113141 | 50 | 234 | 1.7 | 1.7 | 0.00 | 0.00 | 0.00 | 99 | 1004.9 |
| 20260510112637 | 49 | 261 | 1.7 | 1.7 | 0.00 | 0.00 | 0.00 | 99 | 1004.9 |
| 20260510112134 | 48 | 253 | 1.7 | 1.7 | 0.00 | 0.00 | 0.00 | 99 | 1004.6 |
| 20260510111630 | 47 | 265 | 0.9 | 1.7 | 0.00 | 0.00 | 0.00 | 99 | 1004.7 |
| 20260510111126 | 46 | 235 | 0.0 | 0.0 | 0.00 | 0.00 | 0.00 | 99 | 1004.7 |
| 20260510110622 | 45 | 240 | 0.0 | 0.0 | 0.00 | 0.00 | 0.00 | 99 | 1004.3 |
| 20260510110120 | 45 | 222 | 0.0 | 0.0 | 0.00 | 0.00 | 0.00 | 99 | 1004.7 |
| 20260510105615 | 44 | 219 | 0.9 | 1.7 | 0.00 | 0.00 | 0.00 | 99 | 1004.4 |
| 20260510105109 | 44 | 189 | 0.0 | 0.0 | 0.00 | 0.00 | 0.00 | 99 | 1004.2 |
| 20260510104607 | 43 | 178 | 0.0 | 0.0 | 0.00 | 0.00 | 0.00 | 99 | 1004.2 |
| 20260510104103 | 43 | 218 | 0.0 | 0.0 | 0.00 | 0.00 | 0.00 | 99 | 1004.0 |
| 20260510103600 | 42 | 156 | 0.0 | 0.0 | 0.00 | 0.00 | 0.00 | 99 | 1004.1 |
| 20260510103056 | 42 | 198 | 0.0 | 0.0 | 0.00 | 0.00 | 0.00 | 99 | 1004.0 |
| 20260510102551 | 42 | 164 | 0.0 | 0.0 | 0.00 | 0.00 | 0.00 | 99 | 1004.0 |
| 20260510102048 | 42 | 183 | 0.0 | 0.0 | 0.00 | 0.00 | 0.00 | 99 | 1004.0 |
| 20260510101546 | 42 | 165 | 0.0 | 1.7 | 0.00 | 0.00 | 0.00 | 99 | 1003.9 |
| 20260510101044 | 42 | 225 | 0.0 | 0.0 | 0.00 | 0.00 | 0.00 | 99 | 1004.0 |
| 20260510100540 | 42 | 172 | 0.0 | 0.9 | 0.00 | 0.00 | 0.00 | 99 | 1003.9 |
| 20260510100037 | 42 | 182 | 0.0 | 0.0 | 0.00 | 0.00 | 0.00 | 99 | 1004.0 |
| 20260510095533 | 42 | 241 | 0.9 | 1.7 | 0.00 | 0.00 | 0.00 | 99 | 1004.1 |
| 20260510095032 | 42 | 208 | 0.9 | 0.9 | 0.00 | 0.00 | 0.00 | 99 | 1003.9 |
| 20260510094527 | 42 | 210 | 0.9 | 1.7 | 0.00 | 0.00 | 0.00 | 99 | 1003.9 |
| 20260510094023 | 42 | 164 | 0.9 | 0.9 | 0.00 | 0.00 | 0.00 | 99 | 1003.8 |
| 20260510093519 | 43 | 149 | 0.9 | 1.7 | 0.00 | 0.00 | 0.00 | 99 | 1003.9 |
| 20260510093016 | 43 | 231 | 0.9 | 1.7 | 0.00 | 0.00 | 0.00 | 99 | 1003.9 |
| 20260510092513 | 43 | 241 | 0.9 | 1.7 | 0.00 | 0.00 | 0.00 | 99 | 1003.6 |
| 20260510092012 | 43 | 187 | 0.9 | 1.7 | 0.00 | 0.00 | 0.00 | 99 | 1003.8 |
| 20260510091509 | 43 | 172 | 0.0 | 0.0 | 0.00 | 0.00 | 0.00 | 99 | 1003.6 |
| 20260510091005 | 43 | 158 | 0.0 | 0.0 | 0.00 | 0.00 | 0.00 | 99 | 1003.5 |
| 20260510090503 | 43 | 194 | 0.0 | 0.0 | 0.00 | 0.00 | 0.00 | 99 | 1003.5 |
| 20260510085958 | 43 | 181 | 0.0 | 0.0 | 0.00 | 0.00 | 0.00 | 99 | 1003.4 |
| 20260510085453 | 43 | 178 | 0.0 | 0.0 | 0.00 | 0.00 | 0.00 | 99 | 1003.5 |
| 20260510084949 | 43 | 211 | 0.0 | 0.0 | 0.00 | 0.00 | 0.00 | 99 | 1003.4 |
| 20260510084446 | 44 | 227 | 0.0 | 0.0 | 0.00 | 0.00 | 0.00 | 99 | 1003.3 |
| 20260510083943 | 44 | 213 | 0.0 | 0.0 | 0.00 | 0.00 | 0.00 | 99 | 1003.5 |
| 20260510083439 | 43 | 215 | 0.0 | 0.0 | 0.00 | 0.00 | 0.00 | 99 | 1003.3 |
| 20260510082935 | 43 | 222 | 0.0 | 0.0 | 0.00 | 0.00 | 0.00 | 99 | 1003.2 |
| 20260510082433 | 43 | 236 | 0.0 | 0.0 | 0.00 | 0.00 | 0.00 | 99 | 1003.2 |
| 20260510081932 | 42 | 197 | 0.0 | 0.0 | 0.00 | 0.00 | 0.00 | 99 | 1003.1 |
| 20260510081428 | 42 | 219 | 0.0 | 0.9 | 0.00 | 0.00 | 0.00 | 99 | 1003.2 |
| 20260510080925 | 42 | 173 | 0.9 | 0.9 | 0.00 | 0.00 | 0.00 | 99 | 1003.0 |
| 20260510080423 | 42 | 184 | 0.0 | 0.0 | 0.00 | 0.00 | 0.00 | 99 | 1003.1 |
| 20260510075920 | 42 | 167 | 0.0 | 0.0 | 0.00 | 0.00 | 0.00 | 99 | 1003.1 |
| 20260510075418 | 42 | 196 | 0.0 | 0.0 | 0.00 | 0.00 | 0.00 | 99 | 1002.9 |
| 20260510074915 | 43 | 191 | 0.0 | 0.0 | 0.00 | 0.00 | 0.00 | 99 | 1003.0 |
| 20260510074412 | 43 | 203 | 0.0 | 0.9 | 0.00 | 0.00 | 0.00 | 99 | 1003.0 |
| 20260510073908 | 42 | 161 | 0.0 | 0.0 | 0.00 | 0.00 | 0.00 | 99 | 1002.8 |
| 20260510073404 | 42 | 166 | 0.9 | 0.9 | 0.00 | 0.00 | 0.00 | 99 | 1002.9 |
| 20260510072900 | 43 | 148 | 0.9 | 1.7 | 0.00 | 0.00 | 0.00 | 99 | 1002.8 |
| 20260510072357 | 43 | 204 | 0.9 | 1.7 | 0.00 | 0.00 | 0.00 | 99 | 1002.9 |
| 20260510071853 | 43 | 247 | 1.7 | 1.7 | 0.00 | 0.00 | 0.00 | 99 | 1002.9 |
| 20260510071349 | 43 | 202 | 0.9 | 1.7 | 0.00 | 0.00 | 0.00 | 99 | 1002.9 |
| 20260510070848 | 43 | 167 | 0.0 | 0.0 | 0.00 | 0.00 | 0.00 | 99 | 1002.8 |
| 20260510070345 | 43 | 223 | 0.9 | 0.9 | 0.00 | 0.00 | 0.00 | 99 | 1002.9 |
| 20260510065844 | 43 | 210 | 0.0 | 1.7 | 0.00 | 0.00 | 0.00 | 99 | 1003.2 |
| 20260510065342 | 43 | 191 | 0.0 | 0.0 | 0.00 | 0.00 | 0.00 | 99 | 1003.0 |
| 20260510064838 | 43 | 157 | 0.0 | 0.0 | 0.00 | 0.00 | 0.00 | 99 | 1002.8 |
| 20260510064336 | 43 | 155 | 0.0 | 0.0 | 0.00 | 0.00 | 0.00 | 99 | 1002.8 |
| 20260510063832 | 43 | 187 | 0.0 | 0.0 | 0.00 | 0.00 | 0.00 | 99 | 1002.6 |
| 20260510063329 | 43 | 162 | 0.0 | 0.0 | 0.00 | 0.00 | 0.00 | 99 | 1002.8 |
| 20260510062826 | 43 | 147 | 0.0 | 0.0 | 0.00 | 0.00 | 0.00 | 99 | 1002.9 |
| 20260510062321 | 43 | 155 | 0.0 | 0.0 | 0.00 | 0.00 | 0.00 | 99 | 1002.9 |
| 20260510061816 | 43 | 160 | 0.0 | 0.0 | 0.00 | 0.00 | 0.00 | 99 | 1002.6 |
| 20260510061314 | 43 | 217 | 0.0 | 0.0 | 0.00 | 0.00 | 0.00 | 99 | 1002.8 |
| 20260510060810 | 44 | 182 | 0.9 | 0.9 | 0.00 | 0.00 | 0.00 | 99 | 1002.9 |
| 20260510060307 | 43 | 166 | 0.0 | 0.0 | 0.00 | 0.00 | 0.00 | 98 | 1002.6 |
| 20260510055804 | 43 | 168 | 0.0 | 0.9 | 0.00 | 0.00 | 0.00 | 98 | 1002.6 |
| 20260510055306 | 43 | 157 | 0.9 | 0.9 | 0.00 | 0.00 | 0.00 | 98 | 1002.6 |
| 20260510054802 | 43 | 161 | 0.9 | 0.9 | 0.00 | 0.00 | 0.00 | 98 | 1002.8 |
| 20260510054258 | 44 | 169 | 0.9 | 0.9 | 0.00 | 0.00 | 0.00 | 98 | 1002.6 |
| 20260510053757 | 44 | 245 | 0.0 | 0.0 | 0.00 | 0.00 | 0.00 | 98 | 1003.0 |
| 20260510053248 | 43 | 231 | 0.9 | 0.9 | 0.00 | 0.00 | 0.00 | 98 | 1003.1 |
| 20260510052744 | 44 | 180 | 0.9 | 1.7 | 0.00 | 0.00 | 0.00 | 98 | 1002.8 |
| 20260510052240 | 44 | 180 | 0.9 | 1.7 | 0.00 | 0.00 | 0.00 | 98 | 1003.1 |
| 20260510051736 | 44 | 213 | 0.9 | 1.7 | 0.00 | 0.00 | 0.00 | 98 | 1003.0 |
| 20260510051233 | 44 | 249 | 0.9 | 1.7 | 0.00 | 0.00 | 0.00 | 98 | 1003.0 |
| 20260510050730 | 44 | 174 | 0.9 | 0.9 | 0.00 | 0.00 | 0.00 | 98 | 1003.1 |
| 20260510050227 | 44 | 180 | 0.0 | 0.0 | 0.00 | 0.00 | 0.00 | 98 | 1003.2 |
| 20260510045724 | 44 | 169 | 0.9 | 0.9 | 0.00 | 0.00 | 0.00 | 98 | 1003.2 |
| 20260510045221 | 0 | 0.0 | 0.0 | 0.00 | 0.00 | 0.00 | 1002.9 | ||
| 20260510044717 | 0 | 0.0 | 0.0 | 0.00 | 0.00 | 0.00 | 1003.0 | ||
| 20260510044216 | 0 | 0.0 | 0.0 | 0.00 | 0.00 | 0.00 | 1003.1 | ||
| 20260510043710 | 0 | 0.0 | 0.0 | 0.00 | 0.00 | 0.00 | 1003.0 | ||
| 20260510043207 | 0 | 0.0 | 0.0 | 0.00 | 0.00 | 0.00 | 1003.1 | ||
| 20260510042704 | 0 | 0.0 | 0.0 | 0.00 | 0.00 | 0.00 | 1002.9 | ||
| 20260510042200 | 0 | 0.0 | 0.0 | 0.00 | 0.00 | 0.00 | 1002.9 | ||
| 20260510041657 | 44 | 166 | 0.9 | 0.9 | 0.00 | 0.00 | 0.00 | 96 | 1003.0 |
| 20260510041155 | 44 | 166 | 0.9 | 0.9 | 0.00 | 0.00 | 0.00 | 96 | 1002.8 |
| 20260510040651 | 0 | 0.0 | 0.0 | 0.00 | 0.00 | 0.00 | 1002.9 | ||
| 20260510040148 | 45 | 165 | 0.9 | 0.9 | 0.00 | 0.00 | 0.00 | 96 | 1003.0 |
| 20260510035644 | 45 | 165 | 0.9 | 0.9 | 0.00 | 0.00 | 0.00 | 96 | 1003.0 |
| 20260510035139 | 45 | 165 | 0.9 | 0.9 | 0.00 | 0.00 | 0.00 | 96 | 1003.0 |
| 20260510034636 | 45 | 189 | 0.9 | 0.9 | 0.00 | 0.00 | 0.00 | 96 | 1003.0 |
| 20260510034133 | 45 | 179 | 0.0 | 0.9 | 0.00 | 0.00 | 0.00 | 96 | 1003.0 |
| 20260510033629 | 45 | 234 | 0.9 | 0.9 | 0.00 | 0.00 | 0.00 | 96 | 1002.9 |
| 20260510033127 | 45 | 211 | 0.9 | 0.9 | 0.00 | 0.00 | 0.00 | 96 | 1003.0 |
| 20260510032624 | 45 | 211 | 0.9 | 0.9 | 0.00 | 0.00 | 0.00 | 96 | 1003.0 |
| 20260510032119 | 45 | 173 | 0.9 | 0.9 | 0.00 | 0.00 | 0.00 | 95 | 1002.9 |
| 20260510031614 | 46 | 149 | 0.9 | 0.9 | 0.00 | 0.00 | 0.00 | 95 | 1003.1 |
| 20260510031111 | 46 | 257 | 0.9 | 0.9 | 0.00 | 0.00 | 0.00 | 95 | 1002.9 |
| 20260510030606 | 46 | 215 | 1.7 | 1.7 | 0.00 | 0.00 | 0.00 | 95 | 1003.0 |
| 20260510030104 | 0 | 0.0 | 0.0 | 0.00 | 0.00 | 0.00 | 1002.9 | ||
| 20260510025600 | 46 | 212 | 0.9 | 0.9 | 0.00 | 0.00 | 0.00 | 94 | 1002.9 |
| 20260510025058 | 46 | 212 | 0.9 | 0.9 | 0.00 | 0.00 | 0.00 | 94 | 1002.8 |
| 20260510024554 | 46 | 198 | 0.9 | 0.9 | 0.00 | 0.00 | 0.00 | 94 | 1002.9 |
| 20260510024051 | 46 | 163 | 0.9 | 0.9 | 0.00 | 0.00 | 0.00 | 93 | 1002.6 |
| 20260510023547 | 46 | 189 | 0.9 | 0.9 | 0.00 | 0.00 | 0.00 | 93 | 1002.8 |
| 20260510023044 | 46 | 221 | 0.9 | 1.7 | 0.00 | 0.00 | 0.00 | 93 | 1002.4 |
| 20260510022544 | 46 | 164 | 0.9 | 0.9 | 0.00 | 0.00 | 0.00 | 93 | 1002.3 |
| 20260510022038 | 47 | 222 | 0.0 | 0.0 | 0.00 | 0.00 | 0.00 | 93 | 1002.3 |
| 20260510021535 | 46 | 178 | 0.9 | 0.9 | 0.00 | 0.00 | 0.00 | 92 | 1002.3 |
| 20260510021032 | 47 | 162 | 0.9 | 0.9 | 0.00 | 0.00 | 0.00 | 92 | 1002.3 |
| 20260510020527 | 47 | 167 | 0.9 | 0.9 | 0.00 | 0.00 | 0.00 | 91 | 1002.1 |
| 20260510020022 | 48 | 246 | 0.9 | 1.7 | 0.00 | 0.00 | 0.00 | 90 | 1002.2 |
| 20260510015518 | 48 | 246 | 0.9 | 0.9 | 0.00 | 0.00 | 0.00 | 91 | 1001.9 |
| 20260510015014 | 48 | 245 | 1.7 | 1.7 | 0.00 | 0.00 | 0.00 | 91 | 1002.0 |
| 20260510014511 | 48 | 160 | 0.9 | 1.7 | 0.00 | 0.00 | 0.00 | 90 | 1001.6 |
| 20260510014008 | 48 | 211 | 0.0 | 0.0 | 0.00 | 0.00 | 0.00 | 90 | 1001.5 |
| 20260510013502 | 49 | 237 | 0.0 | 0.9 | 0.00 | 0.00 | 0.00 | 89 | 1001.5 |
| 20260510012959 | 49 | 236 | 0.9 | 1.7 | 0.00 | 0.00 | 0.00 | 88 | 1001.6 |
| 20260510012453 | 49 | 242 | 0.0 | 0.9 | 0.00 | 0.00 | 0.00 | 88 | 1001.5 |
| 20260510011949 | 50 | 221 | 0.9 | 1.7 | 0.00 | 0.00 | 0.00 | 87 | 1001.5 |
| 20260510011444 | 50 | 182 | 0.0 | 0.9 | 0.00 | 0.00 | 0.00 | 86 | 1001.4 |
| 20260510010940 | 51 | 208 | 0.9 | 0.9 | 0.00 | 0.00 | 0.00 | 85 | 1001.4 |
| 20260510010437 | 52 | 235 | 0.0 | 0.0 | 0.00 | 0.00 | 0.00 | 83 | 1001.1 |
| 20260510005933 | 52 | 215 | 0.0 | 0.0 | 0.00 | 0.00 | 0.00 | 82 | 1001.1 |
| 20260510005424 | 53 | 214 | 0.0 | 0.9 | 0.00 | 0.00 | 0.00 | 81 | 1001.2 |
| 20260510004921 | 53 | 229 | 0.0 | 0.0 | 0.00 | 0.00 | 0.00 | 81 | 1001.2 |
| 20260510004419 | 53 | 214 | 0.0 | 0.9 | 0.00 | 0.00 | 0.00 | 81 | 1001.4 |
| 20260510003917 | 54 | 182 | 0.0 | 0.0 | 0.00 | 0.00 | 0.00 | 79 | 1001.3 |
| 20260510003414 | 55 | 233 | 0.0 | 0.9 | 0.00 | 0.00 | 0.00 | 77 | 1000.9 |
| 20260510002913 | 55 | 212 | 0.9 | 0.9 | 0.00 | 0.00 | 0.00 | 77 | 1001.1 |
| 20260510002410 | 55 | 246 | 1.7 | 1.7 | 0.00 | 0.00 | 0.00 | 77 | 1000.8 |
| 20260510001906 | 55 | 250 | 0.9 | 0.9 | 0.00 | 0.00 | 0.00 | 76 | 1000.6 |
| 20260510001404 | 56 | 236 | 0.9 | 1.7 | 0.00 | 0.00 | 0.00 | 75 | 1000.5 |
| 20260510000901 | 56 | 227 | 0.9 | 1.7 | 0.00 | 0.00 | 0.00 | 75 | 1000.6 |
| 20260510000357 | 57 | 242 | 0.9 | 1.7 | 0.00 | 0.00 | 0.00 | 73 | 1000.4 |
| 20260509235854 | 57 | 196 | 0.9 | 1.7 | 0.00 | 0.00 | 0.00 | 69 | 1000.3 |
| 20260509235351 | 58 | 250 | 0.9 | 1.7 | 0.00 | 0.00 | 0.00 | 71 | 1000.4 |
| 20260509234847 | 58 | 223 | 0.0 | 0.9 | 0.00 | 0.00 | 0.00 | 68 | 1000.2 |
| 20260509234344 | 59 | 214 | 0.0 | 0.9 | 0.00 | 0.00 | 0.00 | 68 | 1000.2 |
| 20260509233842 | 60 | 233 | 0.9 | 0.9 | 0.00 | 0.00 | 0.00 | 66 | 1000.2 |
| 20260509233340 | 62 | 255 | 0.9 | 0.9 | 0.00 | 0.00 | 0.00 | 63 | 1000.0 |
| 20260509232835 | 62 | 237 | 1.7 | 1.7 | 0.00 | 0.00 | 0.00 | 58 | 1000.1 |
| 20260509232333 | 63 | 205 | 0.9 | 2.6 | 0.00 | 0.00 | 0.00 | 58 | 1000.0 |
| 20260509231829 | 64 | 251 | 0.0 | 0.9 | 0.00 | 0.00 | 0.00 | 58 | 1000.0 |
| 20260509231326 | 64 | 180 | 0.9 | 2.6 | 0.00 | 0.00 | 0.00 | 55 | 999.9 |
| 20260509230824 | 65 | 282 | 0.9 | 1.7 | 0.00 | 0.00 | 0.00 | 54 | 1000.1 |
| 20260509230320 | 65 | 156 | 4.3 | 7.0 | 0.00 | 0.00 | 0.00 | 53 | 1000.1 |
| 20260509225815 | 65 | 180 | 3.5 | 8.7 | 0.00 | 0.00 | 0.00 | 54 | 1000.1 |
| 20260509225312 | 65 | 237 | 1.7 | 5.2 | 0.00 | 0.00 | 0.00 | 54 | 1000.0 |
| 20260509224809 | 65 | 298 | 0.0 | 1.7 | 0.00 | 0.00 | 0.00 | 52 | 1000.0 |
| 20260509224305 | 66 | 289 | 1.7 | 5.2 | 0.00 | 0.00 | 0.00 | 51 | 1000.0 |
| 20260509223801 | 66 | 257 | 1.7 | 5.2 | 0.00 | 0.00 | 0.00 | 50 | 1000.0 |
| 20260509223259 | 67 | 198 | 0.9 | 2.6 | 0.00 | 0.00 | 0.00 | 52 | 1000.1 |
| 20260509222755 | 67 | 224 | 2.6 | 3.5 | 0.00 | 0.00 | 0.00 | 50 | 1000.3 |
| 20260509222250 | 67 | 148 | 1.7 | 5.2 | 0.00 | 0.00 | 0.00 | 48 | 1000.1 |
| 20260509221746 | 69 | 201 | 1.7 | 2.6 | 0.00 | 0.00 | 0.00 | 49 | 1000.0 |
| 20260509221243 | 69 | 297 | 0.9 | 6.1 | 0.00 | 0.00 | 0.00 | 48 | 1000.2 |
| 20260509220733 | 69 | 123 | 0.9 | 3.5 | 0.00 | 0.00 | 0.00 | 48 | 1000.1 |
| 20260509220230 | 70 | 132 | 3.5 | 6.1 | 0.00 | 0.00 | 0.00 | 49 | 1000.1 |
| 20260509215725 | 69 | 159 | 1.7 | 3.5 | 0.00 | 0.00 | 0.00 | 49 | 999.8 |
| 20260509215222 | 69 | 140 | 1.7 | 2.6 | 0.00 | 0.00 | 0.00 | 52 | 1000.0 |
| 20260509214719 | 67 | 156 | 1.7 | 6.1 | 0.00 | 0.00 | 0.00 | 52 | 999.9 |
| 20260509214216 | 67 | 236 | 2.6 | 6.1 | 0.00 | 0.00 | 0.00 | 52 | 999.8 |
| 20260509213713 | 67 | 290 | 4.3 | 7.0 | 0.00 | 0.00 | 0.00 | 51 | 999.7 |
| 20260509213208 | 67 | 165 | 3.5 | 9.6 | 0.00 | 0.00 | 0.00 | 52 | 999.7 |
| 20260509212707 | 67 | 275 | 3.5 | 11.3 | 0.00 | 0.00 | 0.00 | 50 | 999.8 |
| 20260509212203 | 67 | 194 | 1.7 | 6.1 | 0.00 | 0.00 | 0.00 | 51 | 999.5 |
| 20260509211659 | 67 | 287 | 2.6 | 7.8 | 0.00 | 0.00 | 0.00 | 49 | 999.6 |
| 20260509211156 | 68 | 203 | 1.7 | 5.2 | 0.00 | 0.00 | 0.00 | 50 | 999.8 |
| 20260509210652 | 68 | 142 | 4.3 | 7.8 | 0.00 | 0.00 | 0.00 | 50 | 999.6 |
| 20260509210144 | 68 | 245 | 1.7 | 7.8 | 0.00 | 0.00 | 0.00 | 49 | 999.5 |
| 20260509205639 | 67 | 176 | 1.7 | 6.1 | 0.00 | 0.00 | 0.00 | 49 | 999.5 |
| 20260509205138 | 68 | 253 | 5.2 | 7.8 | 0.00 | 0.00 | 0.00 | 47 | 999.2 |
| 20260509204635 | 70 | 137 | 2.6 | 9.6 | 0.00 | 0.00 | 0.00 | 46 | 999.4 |
| 20260509204131 | 71 | 117 | 3.5 | 7.0 | 0.00 | 0.00 | 0.00 | 47 | 999.1 |
| 20260509203627 | 69 | 266 | 1.7 | 6.1 | 0.00 | 0.00 | 0.00 | 46 | 999.2 |
| 20260509203126 | 71 | 246 | 1.7 | 7.0 | 0.00 | 0.00 | 0.00 | 44 | 999.1 |
| 20260509202626 | 70 | 200 | 3.5 | 13.9 | 0.00 | 0.00 | 0.00 | 47 | 999.1 |
| 20260509202121 | 68 | 184 | 1.7 | 3.5 | 0.00 | 0.00 | 0.00 | 47 | 999.1 |
| 20260509201616 | 67 | 257 | 1.7 | 7.0 | 0.00 | 0.00 | 0.00 | 48 | 999.0 |
| 20260509201114 | 67 | 285 | 2.6 | 6.1 | 0.00 | 0.00 | 0.00 | 46 | 999.2 |
| 20260509200615 | 68 | 259 | 2.6 | 6.1 | 0.00 | 0.00 | 0.00 | 46 | 999.0 |
| 20260509200105 | 71 | 245 | 1.7 | 8.7 | 0.00 | 0.00 | 0.00 | 44 | 998.9 |
| 20260509195600 | 69 | 120 | 1.7 | 6.1 | 0.00 | 0.00 | 0.00 | 46 | 998.8 |
| 20260509195050 | 67 | 139 | 0.9 | 3.5 | 0.00 | 0.00 | 0.00 | 49 | 998.9 |
| 20260509194549 | 69 | 146 | 6.1 | 8.7 | 0.00 | 0.00 | 0.00 | 46 | 999.0 |
| 20260509194048 | 70 | 166 | 3.5 | 7.8 | 0.00 | 0.00 | 0.00 | 43 | 999.0 |
| 20260509193542 | 69 | 195 | 1.7 | 5.2 | 0.00 | 0.00 | 0.00 | 46 | 999.0 |
| 20260509193039 | 70 | 150 | 6.1 | 8.7 | 0.00 | 0.00 | 0.00 | 46 | 999.0 |
| 20260509192536 | 68 | 250 | 4.3 | 7.0 | 0.00 | 0.00 | 0.00 | 44 | 999.0 |
| 20260509192030 | 68 | 129 | 1.7 | 8.7 | 0.00 | 0.00 | 0.00 | 44 | 999.0 |
| 20260509191525 | 69 | 278 | 5.2 | 7.8 | 0.00 | 0.00 | 0.00 | 43 | 999.0 |
| 20260509191021 | 69 | 99 | 2.6 | 5.2 | 0.00 | 0.00 | 0.00 | 45 | 998.9 |
| 20260509190518 | 71 | 130 | 4.3 | 6.1 | 0.00 | 0.00 | 0.00 | 45 | 999.0 |
| 20260509190016 | 69 | 144 | 4.3 | 7.8 | 0.00 | 0.00 | 0.00 | 45 | 998.9 |
| 20260509185513 | 71 | 129 | 5.2 | 8.7 | 0.00 | 0.00 | 0.00 | 43 | 999.2 |
| 20260509185009 | 69 | 258 | 2.6 | 2.6 | 0.00 | 0.00 | 0.00 | 47 | 999.0 |
| 20260509184508 | 69 | 186 | 3.5 | 8.7 | 0.00 | 0.00 | 0.00 | 49 | 999.1 |
| 20260509184004 | 69 | 160 | 2.6 | 6.1 | 0.00 | 0.00 | 0.00 | 47 | 999.1 |
| 20260509183459 | 68 | 177 | 2.6 | 6.1 | 0.00 | 0.00 | 0.00 | 49 | 999.4 |
| 20260509182955 | 69 | 124 | 2.6 | 5.2 | 0.00 | 0.00 | 0.00 | 48 | 999.4 |
| 20260509182452 | 69 | 151 | 1.7 | 6.1 | 0.00 | 0.00 | 0.00 | 49 | 999.4 |
| 20260509181949 | 68 | 216 | 3.5 | 5.2 | 0.00 | 0.00 | 0.00 | 50 | 999.2 |
| 20260509181447 | 69 | 138 | 1.7 | 6.1 | 0.00 | 0.00 | 0.00 | 47 | 999.4 |
| 20260509180945 | 68 | 216 | 0.0 | 2.6 | 0.00 | 0.00 | 0.00 | 48 | 999.2 |
| 20260509180440 | 71 | 254 | 1.7 | 3.5 | 0.00 | 0.00 | 0.00 | 47 | 999.6 |
| 20260509175937 | 70 | 244 | 3.5 | 8.7 | 0.00 | 0.00 | 0.00 | 50 | 999.6 |
| 20260509175433 | 69 | 253 | 3.5 | 9.6 | 0.00 | 0.00 | 0.00 | 49 | 999.5 |
| 20260509174930 | 69 | 279 | 2.6 | 6.1 | 0.00 | 0.00 | 0.00 | 50 | 999.5 |
| 20260509174426 | 70 | 199 | 4.3 | 7.0 | 0.00 | 0.00 | 0.00 | 50 | 999.6 |
| 20260509173921 | 69 | 142 | 3.5 | 7.8 | 0.00 | 0.00 | 0.00 | 51 | 999.6 |
| 20260509173415 | 67 | 145 | 3.5 | 5.2 | 0.00 | 0.00 | 0.00 | 52 | 999.8 |
| 20260509172912 | 67 | 239 | 2.6 | 5.2 | 0.00 | 0.00 | 0.00 | 51 | 999.6 |
| 20260509172409 | 66 | 263 | 0.0 | 7.8 | 0.00 | 0.00 | 0.00 | 50 | 999.8 |
| 20260509171905 | 67 | 261 | 3.5 | 6.1 | 0.00 | 0.00 | 0.00 | 49 | 999.7 |
| 20260509171401 | 68 | 201 | 1.7 | 5.2 | 0.00 | 0.00 | 0.00 | 51 | 999.8 |
| 20260509170857 | 68 | 309 | 0.9 | 7.0 | 0.00 | 0.00 | 0.00 | 48 | 999.8 |
| 20260509170353 | 69 | 234 | 2.6 | 7.0 | 0.00 | 0.00 | 0.00 | 46 | 999.7 |
| 20260509165848 | 69 | 223 | 5.2 | 8.7 | 0.00 | 0.00 | 0.00 | 47 | 999.9 |
| 20260509165343 | 69 | 208 | 3.5 | 7.8 | 0.00 | 0.00 | 0.00 | 47 | 1000.1 |
| 20260509164838 | 68 | 64 | 7.8 | 7.8 | 0.00 | 0.00 | 0.00 | 48 | 1000.1 |